createdAt,value
2022-10-05T00:00:20.363Z,5.28
2022-10-05T00:02:48.623Z,4.88
2022-10-05T00:05:27.351Z,4.53
2022-10-05T00:07:56.521Z,5.00
2022-10-05T00:10:23.550Z,4.93
2022-10-05T00:12:52.482Z,5.00
2022-10-05T00:15:22.255Z,5.68
2022-10-05T00:20:21.544Z,4.75
2022-10-05T00:22:48.766Z,4.85
2022-10-05T00:25:18.749Z,4.68
2022-10-05T00:27:55.321Z,5.10
2022-10-05T00:30:23.008Z,5.22
2022-10-05T00:32:56.030Z,4.75
2022-10-05T00:35:25.804Z,5.47
2022-10-05T00:37:54.933Z,5.47
2022-10-05T00:40:40.459Z,5.10
2022-10-05T00:43:44.122Z,5.68
2022-10-05T00:46:44.899Z,6.53
2022-10-05T00:49:43.110Z,6.28
2022-10-05T00:52:23.995Z,6.25
2022-10-05T00:55:28.363Z,5.20
2022-10-05T00:58:16.567Z,6.40
2022-10-05T01:01:09.249Z,5.72
2022-10-05T01:03:42.144Z,5.78
2022-10-05T01:06:11.897Z,5.63
2022-10-05T01:09:16.040Z,5.25
2022-10-05T01:11:52.949Z,5.22
2022-10-05T01:14:47.117Z,6.20
2022-10-05T01:17:33.544Z,5.65
2022-10-05T01:20:41.524Z,5.85
2022-10-05T01:23:31.194Z,5.22
2022-10-05T01:28:36.437Z,5.03
2022-10-05T01:31:41.654Z,4.82
2022-10-05T01:34:24.362Z,5.55
2022-10-05T01:37:22.377Z,4.57
2022-10-05T01:39:49.103Z,4.95
2022-10-05T01:42:27.328Z,5.88
2022-10-05T01:45:09.754Z,5.50
2022-10-05T01:48:02.381Z,5.70
2022-10-05T01:50:52.230Z,7.82
2022-10-05T01:53:58.681Z,6.10
2022-10-05T01:56:38.039Z,6.60
2022-10-05T01:59:30.664Z,6.88
2022-10-05T02:02:15.601Z,6.93
2022-10-05T02:05:03.727Z,7.05
2022-10-05T02:07:50.569Z,7.10
2022-10-05T02:10:35.102Z,7.18
2022-10-05T02:13:11.408Z,7.15
2022-10-05T02:15:45.950Z,7.65
2022-10-05T02:18:20.055Z,7.18
2022-10-05T02:20:49.757Z,6.50
2022-10-05T02:23:24.021Z,7.35
2022-10-05T02:25:52.772Z,6.90
2022-10-05T02:28:52.344Z,6.78
2022-10-05T02:31:49.439Z,6.65
2022-10-05T02:34:31.989Z,6.97
2022-10-05T02:37:25.869Z,7.00
2022-10-05T02:39:58.588Z,7.00
2022-10-05T02:42:28.477Z,7.55
2022-10-05T02:45:19.648Z,6.53
2022-10-05T02:48:10.904Z,8.20
2022-10-05T02:51:04.395Z,6.43
2022-10-05T02:53:57.610Z,6.30
2022-10-05T02:56:49.938Z,6.65
2022-10-05T02:59:31.793Z,6.45
2022-10-05T03:02:15.344Z,6.63
2022-10-05T03:04:48.584Z,6.55
2022-10-05T03:07:24.332Z,5.75
2022-10-05T03:10:22.583Z,5.70
2022-10-05T03:13:05.201Z,5.20
2022-10-05T03:15:41.112Z,5.75
2022-10-05T03:18:30.817Z,5.70
2022-10-05T03:21:19.472Z,5.00
2022-10-05T03:24:27.039Z,5.15
2022-10-05T03:27:26.937Z,4.60
2022-10-05T03:30:15.428Z,4.22
2022-10-05T03:32:57.284Z,4.65
2022-10-05T03:35:32.762Z,4.35
2022-10-05T03:38:27.781Z,3.90
2022-10-05T03:41:16.593Z,4.05
2022-10-05T03:44:01.825Z,3.97
2022-10-05T03:46:47.434Z,3.42
2022-10-05T03:49:34.500Z,4.43
2022-10-05T03:52:11.455Z,3.50
2022-10-05T03:54:52.705Z,2.92
2022-10-05T03:57:26.691Z,3.58
2022-10-05T04:00:00.369Z,4.25
2022-10-05T04:02:33.524Z,3.67
2022-10-05T04:05:24.228Z,3.15
2022-10-05T04:07:58.017Z,3.08
2022-10-05T04:10:31.220Z,2.92
2022-10-05T04:13:27.169Z,3.40
2022-10-05T04:16:07.016Z,2.95
2022-10-05T04:18:48.084Z,3.60
2022-10-05T04:21:26.203Z,4.07
2022-10-05T04:24:03.659Z,3.95
2022-10-05T04:26:56.936Z,4.05
2022-10-05T04:29:45.918Z,3.30
2022-10-05T04:32:50.922Z,4.22
2022-10-05T04:35:40.353Z,3.38
2022-10-05T04:38:45.763Z,3.83
2022-10-05T04:41:20.512Z,4.20
2022-10-05T04:44:03.213Z,4.10
2022-10-05T04:47:01.611Z,3.63
2022-10-05T04:50:06.207Z,4.45
2022-10-05T04:52:55.215Z,3.53
2022-10-05T04:56:03.563Z,4.20
2022-10-05T04:58:55.174Z,4.28
2022-10-05T05:01:36.230Z,4.63
2022-10-05T05:04:41.732Z,4.28
2022-10-05T05:07:46.688Z,4.25
2022-10-05T05:10:54.127Z,3.90
2022-10-05T05:13:27.165Z,7.40
2022-10-05T05:16:29.312Z,3.25
2022-10-05T05:22:15.052Z,4.22
2022-10-05T05:24:54.162Z,4.10
2022-10-05T05:27:46.670Z,4.40
2022-10-05T05:30:52.581Z,3.75
2022-10-05T05:33:23.140Z,3.58
2022-10-05T05:36:07.419Z,3.70
2022-10-05T05:38:40.156Z,3.63
2022-10-05T05:41:14.288Z,4.13
2022-10-05T05:44:03.133Z,3.78
2022-10-05T05:47:01.615Z,4.63
2022-10-05T05:49:33.505Z,3.28
2022-10-05T05:52:11.713Z,3.45
2022-10-05T05:55:01.033Z,3.70
2022-10-05T05:57:34.709Z,4.50
2022-10-05T06:02:45.978Z,3.88
2022-10-05T06:05:39.825Z,3.88
2022-10-05T06:08:27.993Z,3.75
2022-10-05T06:11:28.645Z,3.30
2022-10-05T06:14:00.561Z,3.90
2022-10-05T06:16:52.171Z,3.50
2022-10-05T06:19:22.605Z,3.85
2022-10-05T06:21:58.834Z,3.38
2022-10-05T06:24:34.715Z,3.55
2022-10-05T06:27:24.948Z,3.00
2022-10-05T06:30:23.339Z,3.08
2022-10-05T06:32:51.328Z,3.75
2022-10-05T06:35:40.684Z,2.80
2022-10-05T06:38:17.489Z,2.53
2022-10-05T06:41:11.037Z,4.13
2022-10-05T06:44:10.248Z,2.55
2022-10-05T06:46:44.397Z,2.75
2022-10-05T06:49:30.062Z,2.60
2022-10-05T06:52:14.904Z,2.38
2022-10-05T06:54:57.233Z,2.00
2022-10-05T06:57:39.205Z,2.58
2022-10-05T07:00:38.140Z,2.55
2022-10-05T07:03:35.705Z,2.42
2022-10-05T07:06:18.908Z,2.20
2022-10-05T07:09:19.110Z,6.93
2022-10-05T07:12:30.219Z,2.05
2022-10-05T07:15:21.323Z,2.00
2022-10-05T07:18:15.354Z,2.28
2022-10-05T07:20:53.192Z,2.50
2022-10-05T07:23:35.969Z,2.50
2022-10-05T07:26:26.674Z,2.05
2022-10-05T07:29:07.259Z,1.80
2022-10-05T07:31:39.750Z,2.13
2022-10-05T07:34:33.899Z,2.13
2022-10-05T07:37:30.473Z,2.45
2022-10-05T07:40:10.531Z,2.28
2022-10-05T07:42:59.835Z,2.15
2022-10-05T07:45:45.454Z,2.47
2022-10-05T07:48:49.409Z,2.40
2022-10-05T07:51:33.973Z,1.90
2022-10-05T07:54:29.441Z,1.90
2022-10-05T07:57:23.167Z,1.58
2022-10-05T08:00:00.382Z,4.53
2022-10-05T08:02:58.354Z,1.92
2022-10-05T08:05:41.503Z,13.95
2022-10-05T08:08:20.596Z,1.92
2022-10-05T08:11:15.868Z,1.60
2022-10-05T08:14:16.634Z,1.80
2022-10-05T08:16:48.457Z,1.63
2022-10-05T08:19:23.085Z,2.45
2022-10-05T08:22:02.911Z,2.20
2022-10-05T08:24:55.784Z,1.35
2022-10-05T08:27:48.156Z,1.63
2022-10-05T08:30:19.049Z,1.80
2022-10-05T08:32:51.465Z,1.70
2022-10-05T08:35:40.421Z,2.08
2022-10-05T08:38:16.621Z,1.58
2022-10-05T08:41:11.185Z,1.60
2022-10-05T08:43:43.195Z,1.05
2022-10-05T08:46:29.809Z,1.40
2022-10-05T08:49:26.397Z,1.20
2022-10-05T08:52:19.849Z,1.08
2022-10-05T08:55:24.360Z,1.30
2022-10-05T08:58:30.703Z,1.85
2022-10-05T09:01:22.853Z,0.90
2022-10-05T09:04:30.000Z,1.60
2022-10-05T09:07:23.571Z,1.45
2022-10-05T09:10:17.848Z,1.20
2022-10-05T09:13:21.580Z,1.27
2022-10-05T09:16:16.974Z,1.35
2022-10-05T09:19:02.493Z,1.70
2022-10-05T09:21:42.523Z,1.70
2022-10-05T09:24:27.802Z,2.47
2022-10-05T09:27:03.742Z,1.58
2022-10-05T09:29:48.485Z,1.20
2022-10-05T09:32:25.079Z,1.20
2022-10-05T09:34:58.187Z,1.35
2022-10-05T09:37:51.126Z,2.75
2022-10-05T09:40:44.740Z,1.58
2022-10-05T09:43:51.129Z,1.35
2022-10-05T09:46:38.264Z,1.75
2022-10-05T09:49:29.645Z,1.73
2022-10-05T09:52:30.673Z,1.40
2022-10-05T09:55:41.671Z,1.10
2022-10-05T09:59:07.469Z,4.65
2022-10-05T10:02:14.396Z,1.42
2022-10-05T10:05:01.682Z,2.53
2022-10-05T10:07:32.574Z,1.30
2022-10-05T10:10:20.053Z,1.45
2022-10-05T10:12:56.951Z,1.00
2022-10-05T10:16:02.300Z,1.45
2022-10-05T10:19:08.522Z,1.63
2022-10-05T10:22:08.929Z,1.20
2022-10-05T10:25:00.847Z,1.20
2022-10-05T10:27:40.450Z,1.60
2022-10-05T10:30:38.345Z,1.85
2022-10-05T10:33:37.379Z,2.10
2022-10-05T10:36:52.649Z,1.25
2022-10-05T10:39:57.141Z,1.15
2022-10-05T10:42:46.204Z,1.60
2022-10-05T10:45:22.812Z,1.10
2022-10-05T10:48:30.117Z,1.15
2022-10-05T10:51:17.288Z,1.40
2022-10-05T10:54:12.149Z,1.50
2022-10-05T10:57:05.958Z,1.00
2022-10-05T11:00:04.050Z,1.40
2022-10-05T11:03:02.132Z,1.30
2022-10-05T11:05:48.945Z,1.10
2022-10-05T11:08:55.793Z,1.25
2022-10-05T11:11:38.711Z,1.73
2022-10-05T11:14:31.346Z,1.02
2022-10-05T11:17:21.078Z,1.30
2022-10-05T11:20:25.688Z,0.90
2022-10-05T11:22:58.661Z,1.27
2022-10-05T11:25:57.780Z,1.25
2022-10-05T11:29:04.511Z,1.00
2022-10-05T11:32:04.965Z,1.00
2022-10-05T11:34:50.266Z,1.13
2022-10-05T11:37:44.912Z,1.35
2022-10-05T11:40:36.629Z,1.20
2022-10-05T11:43:37.315Z,1.08
2022-10-05T11:46:13.485Z,1.58
2022-10-05T11:49:00.450Z,1.17
2022-10-05T11:52:06.317Z,1.20
2022-10-05T11:55:09.824Z,1.10
2022-10-05T11:57:53.621Z,1.30
2022-10-05T12:00:42.485Z,0.93
2022-10-05T12:03:39.248Z,1.30
2022-10-05T12:06:43.401Z,1.20
2022-10-05T12:09:25.073Z,1.30
2022-10-05T12:12:07.848Z,1.45
2022-10-05T12:14:59.071Z,1.15
2022-10-05T12:17:45.204Z,1.33
2022-10-05T12:20:34.810Z,0.93
2022-10-05T12:23:30.488Z,1.25
2022-10-05T12:26:31.937Z,1.45
2022-10-05T12:29:19.129Z,1.20
2022-10-05T12:32:03.119Z,1.75
2022-10-05T12:34:38.830Z,1.08
2022-10-05T12:37:27.709Z,1.48
2022-10-05T12:40:03.359Z,1.50
2022-10-05T12:42:52.317Z,1.60
2022-10-05T12:45:37.424Z,2.80
2022-10-05T12:51:57.006Z,1.45
2022-10-05T12:54:45.934Z,1.00
2022-10-05T12:57:27.204Z,1.13
2022-10-05T13:00:20.292Z,0.73
2022-10-05T13:03:37.010Z,1.00
2022-10-05T13:06:22.118Z,1.85
2022-10-05T13:09:03.525Z,1.05
2022-10-05T13:12:06.038Z,0.70
2022-10-05T13:14:51.050Z,0.95
2022-10-05T13:17:22.404Z,1.38
2022-10-05T13:20:03.673Z,1.05
2022-10-05T13:22:51.045Z,2.15
2022-10-05T13:25:31.298Z,1.75
2022-10-05T13:28:40.174Z,1.17
2022-10-05T13:31:19.959Z,0.73
2022-10-05T13:34:08.640Z,0.82
2022-10-05T13:37:01.565Z,1.00
2022-10-05T13:40:00.999Z,1.60
2022-10-05T13:45:24.592Z,1.15
2022-10-05T13:48:19.832Z,0.90
2022-10-05T13:51:11.656Z,0.90
2022-10-05T13:53:46.480Z,1.67
2022-10-05T13:56:22.391Z,1.20
2022-10-05T13:59:11.816Z,1.45
2022-10-05T14:01:56.685Z,1.58
2022-10-05T14:04:53.692Z,1.00
2022-10-05T14:07:49.344Z,0.93
2022-10-05T14:10:38.673Z,0.80
2022-10-05T14:13:27.002Z,0.88
2022-10-05T14:16:12.546Z,1.15
2022-10-05T14:18:51.106Z,0.90
2022-10-05T14:21:28.672Z,0.95
2022-10-05T14:24:25.852Z,1.45
2022-10-05T14:27:36.403Z,1.50
2022-10-05T14:30:20.469Z,1.10
2022-10-05T14:33:07.569Z,1.33
2022-10-05T14:35:50.033Z,1.70
2022-10-05T14:38:29.849Z,1.25
2022-10-05T14:41:27.310Z,1.35
2022-10-05T14:44:16.172Z,1.10
2022-10-05T14:46:55.434Z,1.30
2022-10-05T14:49:22.364Z,1.90
2022-10-05T14:51:50.964Z,1.02
2022-10-05T14:54:28.943Z,1.88
2022-10-05T14:57:05.412Z,1.73
2022-10-05T14:59:40.378Z,1.10
2022-10-05T15:02:18.650Z,1.90
2022-10-05T15:05:05.928Z,1.70
2022-10-05T15:07:48.185Z,1.00
2022-10-05T15:11:04.661Z,2.22
2022-10-05T15:13:36.325Z,1.02
2022-10-05T15:16:17.943Z,1.20
2022-10-05T15:19:20.812Z,1.85
2022-10-05T15:21:56.049Z,1.45
2022-10-05T15:24:26.629Z,1.50
2022-10-05T15:27:03.966Z,2.60
2022-10-05T15:29:52.521Z,1.52
2022-10-05T15:32:31.671Z,1.40
2022-10-05T15:35:11.114Z,1.48
2022-10-05T15:37:42.858Z,1.15
2022-10-05T15:40:33.526Z,2.13
2022-10-05T15:43:08.513Z,0.95
2022-10-05T15:45:38.281Z,1.20
2022-10-05T15:48:17.410Z,2.25
2022-10-05T15:50:59.531Z,1.35
2022-10-05T15:53:37.783Z,1.58
2022-10-05T15:56:28.359Z,1.52
2022-10-05T15:59:02.062Z,3.47
2022-10-05T16:01:32.164Z,1.33
2022-10-05T16:04:17.837Z,2.13
2022-10-05T16:07:20.822Z,1.60
2022-10-05T16:09:56.497Z,1.60
2022-10-05T16:12:26.011Z,1.33
2022-10-05T16:18:03.124Z,1.40
2022-10-05T16:20:49.926Z,1.35
2022-10-05T16:23:45.411Z,1.65
2022-10-05T16:26:38.490Z,1.73
2022-10-05T16:29:27.083Z,1.60
2022-10-05T16:32:05.688Z,1.42
2022-10-05T16:34:54.007Z,1.65
2022-10-05T16:37:43.326Z,1.77
2022-10-05T16:40:28.467Z,1.83
2022-10-05T16:43:28.915Z,1.90
2022-10-05T16:46:10.303Z,2.50
2022-10-05T16:49:04.014Z,1.80
2022-10-05T16:51:36.670Z,1.70
2022-10-05T16:54:09.280Z,1.38
2022-10-05T16:56:47.096Z,1.30
2022-10-05T16:59:51.131Z,1.60
2022-10-05T17:02:32.444Z,1.63
2022-10-05T17:05:21.966Z,1.40
2022-10-05T17:11:17.437Z,1.60
2022-10-05T17:14:03.329Z,2.22
2022-10-05T17:16:49.298Z,1.83
2022-10-05T17:19:24.100Z,1.83
2022-10-05T17:22:00.390Z,2.38
2022-10-05T17:24:41.680Z,2.22
2022-10-05T17:27:30.517Z,2.22
2022-10-05T17:30:36.128Z,1.48
2022-10-05T17:33:14.165Z,1.73
2022-10-05T17:36:00.865Z,1.58
2022-10-05T17:38:30.736Z,1.80
2022-10-05T17:41:00.210Z,1.75
2022-10-05T17:43:28.932Z,2.35
2022-10-05T17:45:58.511Z,2.27
2022-10-05T17:51:47.559Z,1.67
2022-10-05T17:55:05.116Z,1.80
2022-10-05T17:57:33.839Z,2.05
2022-10-05T18:00:31.614Z,2.07
2022-10-05T18:02:58.617Z,1.88
2022-10-05T18:05:28.023Z,1.70
2022-10-05T18:08:13.385Z,1.80
2022-10-05T18:11:09.505Z,2.28
2022-10-05T18:13:43.812Z,2.75
2022-10-05T18:16:10.814Z,2.38
2022-10-05T18:18:43.706Z,2.47
2022-10-05T18:21:13.608Z,2.45
2022-10-05T18:24:15.379Z,2.40
2022-10-05T18:27:31.711Z,2.00
2022-10-05T18:30:21.342Z,1.90
2022-10-05T18:32:57.805Z,2.42
2022-10-05T18:36:06.347Z,2.30
2022-10-05T18:38:58.160Z,2.20
2022-10-05T18:41:45.523Z,2.30
2022-10-05T18:44:12.338Z,2.80
2022-10-05T18:47:05.234Z,2.10
2022-10-05T18:49:42.261Z,1.70
2022-10-05T18:52:27.315Z,2.42
2022-10-05T18:55:10.659Z,2.63
2022-10-05T18:58:09.356Z,2.25
2022-10-05T19:00:56.552Z,2.60
2022-10-05T19:03:42.549Z,1.98
2022-10-05T19:06:38.918Z,2.08
2022-10-05T19:09:23.921Z,2.40
2022-10-05T19:11:55.174Z,0.90
2022-10-05T19:14:45.785Z,1.00
2022-10-05T19:17:43.595Z,1.23
2022-10-05T19:20:18.118Z,0.90
2022-10-05T19:23:16.043Z,1.00
2022-10-05T19:25:55.472Z,1.10
2022-10-05T19:28:36.969Z,1.20
2022-10-05T19:31:12.927Z,1.20
2022-10-05T19:34:05.814Z,1.02
2022-10-05T19:36:50.972Z,0.98
2022-10-05T19:39:28.716Z,1.25
2022-10-05T19:42:18.154Z,0.52
2022-10-05T19:45:24.733Z,0.88
2022-10-05T19:48:13.846Z,0.90
2022-10-05T19:50:58.969Z,1.13
2022-10-05T19:53:30.160Z,1.02
2022-10-05T19:56:20.305Z,1.17
2022-10-05T19:58:48.887Z,1.00
2022-10-05T20:01:36.921Z,1.00
2022-10-05T20:04:05.185Z,1.20
2022-10-05T20:06:33.094Z,0.93
2022-10-05T20:09:18.365Z,1.45
2022-10-05T20:11:52.894Z,0.80
2022-10-05T20:14:28.457Z,1.17
2022-10-05T20:17:45.979Z,1.13
2022-10-05T20:20:36.478Z,1.00
2022-10-05T20:23:27.830Z,1.33
2022-10-05T20:26:13.381Z,1.48
2022-10-05T20:28:40.447Z,1.80
2022-10-05T20:31:08.666Z,1.48
2022-10-05T20:33:35.504Z,2.60
2022-10-05T20:36:03.787Z,1.40
2022-10-05T20:38:31.786Z,1.13
2022-10-05T20:40:58.724Z,1.58
2022-10-05T20:43:25.722Z,1.13
2022-10-05T20:45:53.685Z,1.42
2022-10-05T20:48:20.698Z,1.27
2022-10-05T20:50:47.713Z,1.70
2022-10-05T20:53:14.921Z,1.50
2022-10-05T20:55:43.001Z,1.50
2022-10-05T20:58:11.127Z,1.33
2022-10-05T21:00:56.300Z,4.78
2022-10-05T21:03:23.053Z,2.17
2022-10-05T21:05:50.295Z,2.60
2022-10-05T21:08:17.756Z,1.63
2022-10-05T21:10:44.588Z,1.38
2022-10-05T21:13:11.617Z,1.38
2022-10-05T21:15:38.653Z,1.70
2022-10-05T21:18:05.771Z,1.88
2022-10-05T21:20:32.987Z,1.73
2022-10-05T21:23:01.024Z,1.65
2022-10-05T21:25:27.897Z,2.17
2022-10-05T21:27:54.745Z,1.95
2022-10-05T21:30:21.427Z,1.42
2022-10-05T21:32:48.448Z,1.60
2022-10-05T21:35:15.465Z,1.35
2022-10-05T21:37:42.572Z,1.13
2022-10-05T21:40:09.877Z,1.23
2022-10-05T21:42:36.712Z,1.60
2022-10-05T21:45:03.934Z,1.85
2022-10-05T21:47:30.702Z,1.85
2022-10-05T21:49:57.796Z,2.22
2022-10-05T21:52:24.798Z,1.38
2022-10-05T21:54:52.259Z,1.88
2022-10-05T21:57:19.368Z,1.75
2022-10-05T21:59:46.116Z,1.58
2022-10-05T22:02:13.318Z,1.73
2022-10-05T22:04:40.092Z,2.22
2022-10-05T22:07:18.554Z,2.08
2022-10-05T22:09:49.245Z,2.85
2022-10-05T22:12:16.714Z,2.55
2022-10-05T22:14:43.468Z,1.75
2022-10-05T22:17:16.444Z,2.17
2022-10-05T22:19:43.309Z,2.08
2022-10-05T22:22:12.017Z,2.03
2022-10-05T22:24:38.993Z,2.47
2022-10-05T22:27:06.249Z,1.23
2022-10-05T22:29:33.067Z,1.95
2022-10-05T22:32:00.199Z,2.30
2022-10-05T22:34:27.153Z,1.80
2022-10-05T22:36:54.241Z,2.58
2022-10-05T22:39:21.273Z,2.33
2022-10-05T22:41:48.668Z,1.75
2022-10-05T22:44:15.357Z,2.53
2022-10-05T22:46:42.480Z,1.95
2022-10-05T22:49:09.467Z,2.40
2022-10-05T22:51:36.537Z,1.83
2022-10-05T22:54:03.790Z,1.88
2022-10-05T22:56:30.621Z,1.92
2022-10-05T22:58:57.781Z,2.67
2022-10-05T23:01:24.617Z,1.60
2022-10-05T23:03:51.363Z,1.52
2022-10-05T23:06:20.454Z,2.03
2022-10-05T23:08:48.044Z,1.88
2022-10-05T23:11:23.693Z,1.50
2022-10-05T23:13:55.650Z,1.70
2022-10-05T23:16:26.138Z,2.08
2022-10-05T23:18:54.206Z,2.20
2022-10-05T23:21:22.965Z,1.90
2022-10-05T23:23:51.235Z,2.13
2022-10-05T23:26:20.728Z,1.77
2022-10-05T23:28:48.926Z,1.42
2022-10-05T23:31:18.954Z,1.42
2022-10-05T23:33:45.877Z,2.42
2022-10-05T23:36:16.846Z,1.63
2022-10-05T23:38:44.069Z,1.73
2022-10-05T23:41:11.752Z,1.55
2022-10-05T23:43:38.632Z,1.63
2022-10-05T23:46:07.212Z,2.05
2022-10-05T23:48:34.966Z,2.92
2022-10-05T23:51:01.789Z,1.95
2022-10-05T23:53:28.746Z,2.10
2022-10-05T23:55:56.277Z,2.53
2022-10-05T23:58:24.367Z,1.85
